createdAt,value
2022-11-27T00:00:44.806Z,102617.81
2022-11-27T00:03:11.631Z,102614.56
2022-11-27T00:05:38.140Z,102607.69
2022-11-27T00:08:04.722Z,102613.28
2022-11-27T00:10:31.302Z,102617.09
2022-11-27T00:12:57.748Z,102603.75
2022-11-27T00:15:24.197Z,102611.09
2022-11-27T00:17:50.615Z,102613.13
2022-11-27T00:20:17.132Z,102611.31
2022-11-27T00:22:43.536Z,102622.03
2022-11-27T00:25:09.934Z,102620.34
2022-11-27T00:27:36.351Z,102614.59
2022-11-27T00:30:02.802Z,102613.91
2022-11-27T00:32:29.237Z,102615.44
2022-11-27T00:34:55.652Z,102589.66
2022-11-27T00:37:22.053Z,102623.72
2022-11-27T00:39:48.517Z,102630.06
2022-11-27T00:42:15.051Z,102621.66
2022-11-27T00:44:41.611Z,102632.03
2022-11-27T00:47:08.247Z,102638.16
2022-11-27T00:49:34.694Z,102635.94
2022-11-27T00:52:01.112Z,102642.28
2022-11-27T00:54:27.543Z,102646.59
2022-11-27T00:56:53.975Z,102645.63
2022-11-27T00:59:20.445Z,102641.88
2022-11-27T01:01:47.143Z,102596.81
2022-11-27T01:04:16.022Z,102650.84
2022-11-27T01:06:43.168Z,102641.06
2022-11-27T01:09:12.424Z,102646.19
2022-11-27T01:11:40.100Z,102628.03
2022-11-27T01:14:15.945Z,102636.47
2022-11-27T01:16:43.448Z,102524.44
2022-11-27T01:19:12.223Z,102640.22
2022-11-27T01:21:38.669Z,102626.03
2022-11-27T01:24:05.838Z,102601.72
2022-11-27T01:26:32.582Z,102629.00
2022-11-27T01:28:59.526Z,102620.06
2022-11-27T01:31:28.526Z,102611.00
2022-11-27T01:33:57.843Z,102605.88
2022-11-27T01:36:25.091Z,102608.09
2022-11-27T01:38:51.937Z,102597.00
2022-11-27T01:41:25.979Z,102605.00
2022-11-27T01:43:57.013Z,102610.44
2022-11-27T01:46:32.299Z,102572.31
2022-11-27T01:49:11.080Z,102600.00
2022-11-27T01:52:06.079Z,102583.34
2022-11-27T01:54:39.754Z,102598.34
2022-11-27T01:57:20.489Z,102557.41
2022-11-27T01:59:50.738Z,102529.88
2022-11-27T02:02:17.515Z,102538.25
2022-11-27T02:04:43.963Z,102579.78
2022-11-27T02:07:10.811Z,102532.09
2022-11-27T02:09:37.425Z,102583.66
2022-11-27T02:12:25.093Z,102578.59
2022-11-27T02:15:18.455Z,102583.72
2022-11-27T02:18:05.570Z,102581.25
2022-11-27T02:20:45.275Z,102573.56
2022-11-27T02:23:20.491Z,102585.81
2022-11-27T02:26:18.037Z,102585.91
2022-11-27T02:29:02.999Z,102578.00
2022-11-27T02:31:32.324Z,102586.03
2022-11-27T02:34:10.550Z,102582.56
2022-11-27T02:36:40.775Z,102577.16
2022-11-27T02:39:12.746Z,102549.38
2022-11-27T02:41:54.208Z,102579.03
2022-11-27T02:44:23.593Z,102583.41
2022-11-27T02:46:50.386Z,102583.75
2022-11-27T02:49:19.113Z,102505.38
2022-11-27T02:51:51.473Z,102540.25
2022-11-27T02:54:24.892Z,102568.34
2022-11-27T02:56:53.726Z,102459.59
2022-11-27T02:59:22.108Z,102500.44
2022-11-27T03:01:53.781Z,102579.09
2022-11-27T03:04:26.652Z,102580.13
2022-11-27T03:06:57.814Z,102579.31
2022-11-27T03:09:29.348Z,102585.47
2022-11-27T03:11:56.188Z,102531.25
2022-11-27T03:14:24.805Z,102583.63
2022-11-27T03:17:11.625Z,102586.47
2022-11-27T03:19:45.789Z,102534.16
2022-11-27T03:22:12.830Z,102583.25
2022-11-27T03:24:39.821Z,102485.34
2022-11-27T03:27:06.816Z,102509.25
2022-11-27T03:29:49.917Z,102578.06
2022-11-27T03:32:16.903Z,102562.69
2022-11-27T03:34:43.829Z,102552.34
2022-11-27T03:37:10.519Z,102587.94
2022-11-27T03:39:37.171Z,102530.31
2022-11-27T03:42:26.653Z,102527.72
2022-11-27T03:45:10.057Z,102576.53
2022-11-27T03:48:05.224Z,102579.38
2022-11-27T03:50:58.908Z,102582.22
2022-11-27T03:53:44.498Z,102575.31
2022-11-27T03:56:23.019Z,102572.78
2022-11-27T03:58:56.184Z,102566.25
2022-11-27T04:01:26.693Z,102581.31
2022-11-27T04:03:53.455Z,102543.91
2022-11-27T04:06:19.971Z,102569.09
2022-11-27T04:08:47.523Z,102571.78
2022-11-27T04:11:15.049Z,102566.78
2022-11-27T04:13:41.574Z,102526.81
2022-11-27T04:16:08.705Z,102563.41
2022-11-27T04:18:35.400Z,102510.94
2022-11-27T04:21:02.144Z,102498.13
2022-11-27T04:23:28.556Z,102515.22
2022-11-27T04:25:55.049Z,102453.53
2022-11-27T04:28:21.548Z,102551.47
2022-11-27T04:30:53.495Z,102564.22
2022-11-27T04:33:20.000Z,102564.19
2022-11-27T04:35:46.469Z,102565.09
2022-11-27T04:38:13.090Z,102559.16
2022-11-27T04:40:39.652Z,102540.25
2022-11-27T04:43:06.709Z,102548.78
2022-11-27T04:45:33.241Z,102557.47
2022-11-27T04:47:59.864Z,102549.69
2022-11-27T04:50:26.387Z,102484.75
2022-11-27T04:52:52.876Z,102489.94
2022-11-27T04:55:19.383Z,102497.03
2022-11-27T04:57:45.842Z,102512.06
2022-11-27T05:00:12.769Z,102538.91
2022-11-27T05:02:40.181Z,102524.63
2022-11-27T05:05:07.034Z,102472.91
2022-11-27T05:07:33.621Z,102514.91
2022-11-27T05:10:00.182Z,102496.69
2022-11-27T05:12:26.719Z,102486.69
2022-11-27T05:14:53.146Z,102499.03
2022-11-27T05:17:19.655Z,102492.78
2022-11-27T05:19:46.149Z,102425.94
2022-11-27T05:22:12.593Z,102492.13
2022-11-27T05:24:39.263Z,102432.88
2022-11-27T05:27:05.954Z,102485.41
2022-11-27T05:29:32.542Z,102485.50
2022-11-27T05:31:58.953Z,102481.66
2022-11-27T05:34:25.434Z,102477.19
2022-11-27T05:36:51.890Z,102468.66
2022-11-27T05:39:18.332Z,102471.31
2022-11-27T05:41:44.789Z,102466.00
2022-11-27T05:44:15.380Z,102432.09
2022-11-27T05:46:45.312Z,102377.94
2022-11-27T05:49:14.005Z,102458.19
2022-11-27T05:51:40.941Z,102371.16
2022-11-27T05:54:07.796Z,102428.75
2022-11-27T05:56:34.267Z,102458.81
2022-11-27T05:59:00.849Z,102457.25
2022-11-27T06:01:27.440Z,102464.47
2022-11-27T06:03:53.913Z,102399.00
2022-11-27T06:06:21.170Z,102474.25
2022-11-27T06:08:48.162Z,102473.75
2022-11-27T06:11:20.341Z,102480.97
2022-11-27T06:13:48.439Z,102405.81
2022-11-27T06:16:23.461Z,102463.59
2022-11-27T06:18:55.094Z,102400.06
2022-11-27T06:21:23.130Z,102444.50
2022-11-27T06:23:52.605Z,102430.63
2022-11-27T06:26:25.149Z,102427.53
2022-11-27T06:28:52.144Z,102482.53
2022-11-27T06:31:21.581Z,102477.22
2022-11-27T06:33:49.719Z,102471.84
2022-11-27T06:36:18.049Z,102426.59
2022-11-27T06:38:45.327Z,102465.88
2022-11-27T06:41:15.218Z,102454.72
2022-11-27T06:43:42.355Z,102360.06
2022-11-27T06:46:16.164Z,102368.72
2022-11-27T06:48:43.834Z,102450.81
2022-11-27T06:51:12.688Z,102443.03
2022-11-27T06:53:40.460Z,102401.19
2022-11-27T06:56:10.022Z,102436.81
2022-11-27T06:58:37.005Z,102435.94
2022-11-27T07:01:06.460Z,102432.34
2022-11-27T07:03:33.019Z,102368.91
2022-11-27T07:06:00.587Z,102399.56
2022-11-27T07:08:27.346Z,102439.72
2022-11-27T07:10:53.808Z,102383.88
2022-11-27T07:13:20.239Z,102444.38
2022-11-27T07:15:46.697Z,102439.72
2022-11-27T07:18:13.141Z,102436.19
2022-11-27T07:20:39.613Z,102447.78
2022-11-27T07:23:06.119Z,102435.44
2022-11-27T07:25:32.562Z,102394.47
2022-11-27T07:27:59.052Z,102442.28
2022-11-27T07:30:25.477Z,102450.25
2022-11-27T07:32:51.875Z,102371.44
2022-11-27T07:35:18.561Z,102434.88
2022-11-27T07:37:45.024Z,102419.16
2022-11-27T07:40:12.438Z,102428.53
2022-11-27T07:42:40.439Z,102403.03
2022-11-27T07:45:08.656Z,102356.31
2022-11-27T07:47:35.382Z,102430.66
2022-11-27T07:50:01.987Z,102425.47
2022-11-27T07:52:28.448Z,102355.50
2022-11-27T07:54:54.874Z,102414.91
2022-11-27T07:57:21.520Z,102422.28
2022-11-27T07:59:48.206Z,102343.22
2022-11-27T08:02:15.460Z,102345.63
2022-11-27T08:04:42.302Z,102397.84
2022-11-27T08:07:09.037Z,102363.06
2022-11-27T08:09:35.590Z,102402.38
2022-11-27T08:12:01.988Z,102350.78
2022-11-27T08:14:28.445Z,102355.88
2022-11-27T08:16:54.931Z,102361.59
2022-11-27T08:19:21.946Z,102402.38
2022-11-27T08:21:48.400Z,102397.34
2022-11-27T08:24:14.935Z,102360.09
2022-11-27T08:26:41.680Z,102379.31
2022-11-27T08:29:11.815Z,102186.38
2022-11-27T08:31:38.521Z,102320.44
2022-11-27T08:34:05.808Z,102404.75
2022-11-27T08:36:32.314Z,102388.06
2022-11-27T08:38:58.796Z,102383.22
2022-11-27T08:41:25.296Z,102309.53
2022-11-27T08:43:51.796Z,102390.97
2022-11-27T08:46:18.361Z,102344.66
2022-11-27T08:48:44.903Z,102377.94
2022-11-27T08:51:14.196Z,102363.31
2022-11-27T08:53:41.555Z,102352.72
2022-11-27T08:56:24.865Z,102338.56
2022-11-27T08:58:52.080Z,102322.59
2022-11-27T09:01:27.167Z,102334.06
2022-11-27T09:03:53.976Z,102306.50
2022-11-27T09:06:23.947Z,102348.22
2022-11-27T09:08:50.791Z,102355.69
2022-11-27T09:11:19.937Z,102329.75
2022-11-27T09:13:47.111Z,102348.78
2022-11-27T09:16:16.234Z,102342.91
2022-11-27T09:18:51.668Z,102342.72
2022-11-27T09:21:20.743Z,102340.81
2022-11-27T09:23:47.359Z,102351.81
2022-11-27T09:26:16.411Z,102355.44
2022-11-27T09:28:44.005Z,102358.22
2022-11-27T09:31:12.928Z,102367.72
2022-11-27T09:33:40.941Z,102287.19
2022-11-27T09:36:10.380Z,102348.44
2022-11-27T09:38:38.071Z,102341.97
2022-11-27T09:41:10.466Z,102329.06
2022-11-27T09:43:45.264Z,102328.28
2022-11-27T09:46:21.551Z,102270.72
2022-11-27T09:48:51.339Z,102303.56
2022-11-27T09:51:32.176Z,102301.72
2022-11-27T09:54:06.719Z,102302.63
2022-11-27T09:56:36.471Z,102304.97
2022-11-27T09:59:08.921Z,102311.56
2022-11-27T10:01:44.252Z,102295.81
2022-11-27T10:04:17.647Z,102293.09
2022-11-27T10:06:49.985Z,102289.66
2022-11-27T10:09:34.468Z,102247.44
2022-11-27T10:12:30.299Z,102278.81
2022-11-27T10:15:09.782Z,102297.50
2022-11-27T10:17:36.156Z,102302.91
2022-11-27T10:20:18.822Z,102287.31
2022-11-27T10:22:57.393Z,102289.47
2022-11-27T10:25:36.675Z,102300.31
2022-11-27T10:28:11.985Z,102309.38
2022-11-27T10:30:44.009Z,102304.44
2022-11-27T10:33:18.922Z,102293.41
2022-11-27T10:35:49.337Z,102292.47
2022-11-27T10:38:28.174Z,102206.97
2022-11-27T10:41:09.852Z,102258.78
2022-11-27T10:43:38.774Z,102282.31
2022-11-27T10:46:20.179Z,102250.31
2022-11-27T10:48:46.696Z,102222.53
2022-11-27T10:51:25.910Z,102250.50
2022-11-27T10:53:54.658Z,102279.88
2022-11-27T10:56:58.595Z,102286.53
2022-11-27T10:59:34.863Z,102271.41
2022-11-27T11:02:03.428Z,102291.72
2022-11-27T11:04:39.208Z,102280.88
2022-11-27T11:07:25.035Z,102282.25
2022-11-27T11:09:52.003Z,102277.94
2022-11-27T11:12:21.614Z,102263.34
2022-11-27T11:14:55.596Z,102275.09
2022-11-27T11:17:35.164Z,102199.50
2022-11-27T11:20:18.999Z,102265.88
2022-11-27T11:22:47.490Z,102260.16
2022-11-27T11:25:19.196Z,102251.44
2022-11-27T11:27:47.726Z,102248.66
2022-11-27T11:30:23.652Z,102249.50
2022-11-27T11:32:51.851Z,102252.69
2022-11-27T11:35:29.095Z,102247.56
2022-11-27T11:37:57.401Z,102241.91
2022-11-27T11:40:30.196Z,102232.84
2022-11-27T11:42:59.040Z,102228.38
2022-11-27T11:45:32.820Z,102214.28
2022-11-27T11:48:02.322Z,102221.53
2022-11-27T11:50:42.538Z,102215.25
2022-11-27T11:53:22.691Z,102215.28
2022-11-27T11:55:49.147Z,102207.09
2022-11-27T11:58:33.897Z,102201.53
2022-11-27T12:01:27.607Z,102202.28
2022-11-27T12:04:12.433Z,102193.06
2022-11-27T12:06:45.299Z,102191.13
2022-11-27T12:09:37.640Z,102178.88
2022-11-27T12:12:17.703Z,102123.25
2022-11-27T12:14:56.704Z,102169.53
2022-11-27T12:17:51.482Z,102175.16
2022-11-27T12:20:47.265Z,102173.78
2022-11-27T12:23:41.148Z,102126.28
2022-11-27T12:26:32.856Z,102140.69
2022-11-27T12:28:59.712Z,102174.66
2022-11-27T12:32:03.946Z,102167.50
2022-11-27T12:34:42.736Z,102167.91
2022-11-27T12:37:18.170Z,102161.69
2022-11-27T12:40:04.571Z,102070.63
2022-11-27T12:42:50.566Z,102150.19
2022-11-27T12:45:39.347Z,102132.31
2022-11-27T12:48:15.794Z,102150.34
2022-11-27T12:50:54.007Z,102138.91
2022-11-27T12:53:31.521Z,102136.22
2022-11-27T12:56:06.909Z,101955.72
2022-11-27T12:58:39.463Z,102124.50
2022-11-27T13:01:11.575Z,102139.75
2022-11-27T13:03:51.640Z,102117.63
2022-11-27T13:06:22.117Z,102110.22
2022-11-27T13:08:59.885Z,102063.81
2022-11-27T13:11:32.521Z,102114.28
2022-11-27T13:14:20.517Z,102100.03
2022-11-27T13:16:57.579Z,102101.03
2022-11-27T13:19:32.741Z,102106.09
2022-11-27T13:22:03.395Z,102091.72
2022-11-27T13:24:30.124Z,102096.94
2022-11-27T13:27:10.154Z,102097.34
2022-11-27T13:30:07.494Z,102096.09
2022-11-27T13:32:37.338Z,102098.84
2022-11-27T13:35:17.175Z,101959.00
2022-11-27T13:37:45.247Z,101988.50
2022-11-27T13:40:24.054Z,102050.44
2022-11-27T13:42:55.778Z,102086.72
2022-11-27T13:45:42.855Z,102081.41
2022-11-27T13:48:32.329Z,102067.53
2022-11-27T13:50:59.521Z,102038.88
2022-11-27T13:53:37.862Z,102036.47
2022-11-27T13:56:06.162Z,102041.97
2022-11-27T13:58:38.531Z,102028.72
2022-11-27T14:01:31.298Z,102056.97
2022-11-27T14:04:08.574Z,101987.81
2022-11-27T14:06:35.998Z,102046.31
2022-11-27T14:09:05.781Z,102053.84
2022-11-27T14:11:44.844Z,102044.44
2022-11-27T14:14:24.018Z,102036.88
2022-11-27T14:17:09.173Z,102023.22
2022-11-27T14:19:45.329Z,102036.25
2022-11-27T14:22:44.228Z,102029.50
2022-11-27T14:25:32.428Z,102039.94
2022-11-27T14:28:03.599Z,102046.25
2022-11-27T14:30:40.269Z,102040.91
2022-11-27T14:33:26.296Z,102016.09
2022-11-27T14:35:58.402Z,102038.94
2022-11-27T14:38:26.993Z,102043.50
2022-11-27T14:40:55.115Z,102034.78
2022-11-27T14:43:28.521Z,102040.09
2022-11-27T14:45:58.895Z,102027.00
2022-11-27T14:48:41.482Z,102031.19
2022-11-27T14:51:15.267Z,102032.28
2022-11-27T14:53:42.450Z,102030.56
2022-11-27T14:56:09.440Z,102002.53
2022-11-27T14:58:38.017Z,102021.41
2022-11-27T15:01:07.414Z,102017.38
2022-11-27T15:03:34.434Z,102014.84
2022-11-27T15:06:06.851Z,102012.09
2022-11-27T15:08:35.885Z,102003.56
2022-11-27T15:11:04.919Z,102008.75
2022-11-27T15:13:34.804Z,102004.41
2022-11-27T15:16:18.014Z,101989.47
2022-11-27T15:18:50.459Z,101970.13
2022-11-27T15:21:20.386Z,101989.16
2022-11-27T15:23:49.824Z,101932.22
2022-11-27T15:26:31.117Z,101886.03
2022-11-27T15:28:58.468Z,101969.84
2022-11-27T15:31:34.584Z,101975.34
2022-11-27T15:34:14.492Z,101918.44
2022-11-27T15:36:43.668Z,101984.97
2022-11-27T15:39:36.025Z,101976.78
2022-11-27T15:42:04.869Z,101986.03
2022-11-27T15:44:32.542Z,101974.56
2022-11-27T15:47:01.546Z,101957.63
2022-11-27T15:49:28.625Z,101972.34
2022-11-27T15:51:56.810Z,101960.09
2022-11-27T15:54:23.763Z,101961.69
2022-11-27T15:56:50.558Z,101913.66
2022-11-27T15:59:20.565Z,101888.09
2022-11-27T16:01:47.447Z,101913.94
2022-11-27T16:04:13.981Z,101943.22
2022-11-27T16:06:40.489Z,101893.50
2022-11-27T16:09:06.952Z,101952.56
2022-11-27T16:11:33.409Z,101941.06
2022-11-27T16:13:59.982Z,101943.34
2022-11-27T16:16:27.059Z,101922.47
2022-11-27T16:18:57.097Z,101902.28
2022-11-27T16:21:29.257Z,101895.28
2022-11-27T16:23:58.345Z,101933.38
2022-11-27T16:26:25.125Z,101905.69
2022-11-27T16:28:51.673Z,101924.63
2022-11-27T16:31:18.407Z,101914.34
2022-11-27T16:33:44.964Z,101942.19
2022-11-27T16:36:14.564Z,101854.81
2022-11-27T16:38:41.876Z,101936.00
2022-11-27T16:41:11.078Z,101921.88
2022-11-27T16:43:43.467Z,101930.41
2022-11-27T16:46:14.156Z,101923.69
2022-11-27T16:48:42.985Z,101912.50
2022-11-27T16:51:13.031Z,101929.91
2022-11-27T16:53:41.423Z,101918.25
2022-11-27T16:56:09.397Z,101871.66
2022-11-27T16:58:37.760Z,101904.03
2022-11-27T17:01:05.706Z,101904.84
2022-11-27T17:03:32.355Z,101874.63
2022-11-27T17:05:58.839Z,101899.69
2022-11-27T17:08:25.790Z,101906.56
2022-11-27T17:10:53.061Z,101900.50
2022-11-27T17:13:19.650Z,101897.59
2022-11-27T17:15:46.060Z,101802.06
2022-11-27T17:18:12.499Z,101889.09
2022-11-27T17:20:38.966Z,101896.44
2022-11-27T17:23:05.385Z,101897.38
2022-11-27T17:25:31.974Z,101838.03
2022-11-27T17:27:58.751Z,101890.25
2022-11-27T17:30:25.277Z,101864.94
2022-11-27T17:32:51.751Z,101897.59
2022-11-27T17:35:18.216Z,101883.59
2022-11-27T17:37:45.465Z,101882.38
2022-11-27T17:40:12.607Z,101895.28
2022-11-27T17:42:39.109Z,101897.38
2022-11-27T17:45:06.062Z,101847.72
2022-11-27T17:47:34.140Z,101893.53
2022-11-27T17:50:00.795Z,101879.53
2022-11-27T17:52:27.441Z,101846.66
2022-11-27T17:54:53.864Z,101877.41
2022-11-27T17:57:20.393Z,101873.00
2022-11-27T17:59:46.895Z,101872.13
2022-11-27T18:02:13.590Z,101867.41
2022-11-27T18:04:41.046Z,101864.91
2022-11-27T18:07:07.465Z,101849.41
2022-11-27T18:09:33.941Z,101840.03
2022-11-27T18:12:00.406Z,101823.03
2022-11-27T18:14:26.881Z,101810.44
2022-11-27T18:16:53.654Z,101802.34
2022-11-27T18:19:20.533Z,101823.59
2022-11-27T18:21:47.042Z,101800.50
2022-11-27T18:24:28.949Z,101757.50
2022-11-27T18:27:11.334Z,101779.50
2022-11-27T18:29:40.559Z,101737.38
2022-11-27T18:32:07.624Z,101780.38
2022-11-27T18:34:34.569Z,101760.22
2022-11-27T18:37:01.096Z,101773.22
2022-11-27T18:39:28.071Z,101692.59
2022-11-27T18:41:54.572Z,101711.31
2022-11-27T18:44:20.992Z,101741.88
2022-11-27T18:46:47.514Z,101700.94
2022-11-27T18:49:13.934Z,101743.78
2022-11-27T18:51:40.706Z,101762.28
2022-11-27T18:54:07.236Z,101746.91
2022-11-27T18:56:33.666Z,101766.25
2022-11-27T18:59:05.024Z,101692.97
2022-11-27T19:01:40.872Z,101775.56
2022-11-27T19:04:09.114Z,101783.22
2022-11-27T19:06:37.437Z,101780.31
2022-11-27T19:09:04.757Z,101749.13
2022-11-27T19:11:32.813Z,101745.38
2022-11-27T19:13:59.850Z,101778.63
2022-11-27T19:16:32.734Z,101776.59
2022-11-27T19:19:00.258Z,101681.75
2022-11-27T19:21:28.927Z,101772.81
2022-11-27T19:23:58.216Z,101756.38
2022-11-27T19:26:28.354Z,101757.09
2022-11-27T19:28:57.018Z,101752.91
2022-11-27T19:31:25.153Z,101753.78
2022-11-27T19:33:53.113Z,101653.25
2022-11-27T19:36:20.367Z,101731.25
2022-11-27T19:38:46.912Z,101706.72
2022-11-27T19:41:17.353Z,101731.16
2022-11-27T19:43:44.860Z,101732.28
2022-11-27T19:46:23.644Z,101730.50
2022-11-27T19:48:51.167Z,101718.19
2022-11-27T19:51:17.578Z,101675.84
2022-11-27T19:53:44.052Z,101691.28
2022-11-27T19:56:11.147Z,101713.47
2022-11-27T19:58:37.954Z,101706.94
2022-11-27T20:01:16.155Z,101708.69
2022-11-27T20:03:43.491Z,101715.91
2022-11-27T20:06:14.382Z,101716.88
2022-11-27T20:08:41.564Z,101712.78
2022-11-27T20:11:11.031Z,101655.09
2022-11-27T20:13:38.028Z,101712.38
2022-11-27T20:16:12.427Z,101714.88
2022-11-27T20:18:39.287Z,101703.41
2022-11-27T20:21:11.504Z,101703.41
2022-11-27T20:23:39.081Z,101692.13
2022-11-27T20:26:11.272Z,101692.06
2022-11-27T20:28:41.556Z,101680.81
2022-11-27T20:31:13.849Z,101664.75
2022-11-27T20:33:40.382Z,101683.50
2022-11-27T20:36:14.428Z,101679.16
2022-11-27T20:38:41.340Z,101653.03
2022-11-27T20:41:09.820Z,101680.56
2022-11-27T20:43:37.159Z,101672.94
2022-11-27T20:46:04.687Z,101682.56
2022-11-27T20:48:31.609Z,101684.09
2022-11-27T20:51:08.509Z,101698.97
2022-11-27T20:53:35.458Z,101688.28
2022-11-27T20:56:06.342Z,101690.25
2022-11-27T20:58:34.627Z,101683.56
2022-11-27T21:01:01.220Z,101687.25
2022-11-27T21:03:29.121Z,101687.50
2022-11-27T21:05:55.895Z,101616.94
2022-11-27T21:08:22.737Z,101683.97
2022-11-27T21:10:50.471Z,101676.78
2022-11-27T21:13:17.319Z,101643.44
2022-11-27T21:15:47.742Z,101670.50
2022-11-27T21:18:14.758Z,101660.22
2022-11-27T21:20:42.396Z,101667.84
2022-11-27T21:23:08.995Z,101668.59
2022-11-27T21:25:37.804Z,101590.91
2022-11-27T21:28:04.644Z,101661.16
2022-11-27T21:30:31.305Z,101618.38
2022-11-27T21:32:57.743Z,101652.31
2022-11-27T21:35:28.719Z,101665.28
2022-11-27T21:37:58.095Z,101659.25
2022-11-27T21:40:24.513Z,101653.19
2022-11-27T21:42:52.114Z,101656.00
2022-11-27T21:45:18.575Z,101652.22
2022-11-27T21:47:45.034Z,101642.50
2022-11-27T21:50:13.221Z,101636.97
2022-11-27T21:52:39.645Z,101630.38
2022-11-27T21:55:11.625Z,101642.63
2022-11-27T21:57:38.657Z,101643.59
2022-11-27T22:00:06.085Z,101641.84
2022-11-27T22:02:32.595Z,101633.66
2022-11-27T22:04:59.092Z,101598.91
2022-11-27T22:07:25.597Z,101620.00
2022-11-27T22:09:52.166Z,101629.31
2022-11-27T22:12:18.787Z,101628.22
2022-11-27T22:14:45.394Z,101625.47
2022-11-27T22:17:11.867Z,101625.09
2022-11-27T22:19:42.301Z,101616.03
2022-11-27T22:22:08.791Z,101534.69
2022-11-27T22:24:35.477Z,101622.25
2022-11-27T22:27:02.214Z,101603.28
2022-11-27T22:29:28.673Z,101598.28
2022-11-27T22:31:55.120Z,101596.34
2022-11-27T22:34:21.648Z,101552.38
2022-11-27T22:36:48.106Z,101590.19
2022-11-27T22:39:15.166Z,101561.66
2022-11-27T22:41:42.451Z,101596.66
2022-11-27T22:44:14.182Z,101597.53
2022-11-27T22:46:41.507Z,101597.13
2022-11-27T22:49:14.316Z,101581.78
2022-11-27T22:51:41.599Z,101573.00
2022-11-27T22:54:10.900Z,101578.19
2022-11-27T22:56:37.464Z,101568.28
2022-11-27T22:59:31.193Z,101565.81
2022-11-27T23:01:52.454Z,101561.31
2022-11-27T23:04:18.895Z,101568.50
2022-11-27T23:06:48.283Z,101541.00
2022-11-27T23:09:16.285Z,101522.06
2022-11-27T23:11:42.807Z,101549.38
2022-11-27T23:14:09.230Z,101545.25
2022-11-27T23:16:35.865Z,101540.47
2022-11-27T23:19:02.303Z,101541.75
2022-11-27T23:21:28.752Z,101537.06
2022-11-27T23:23:55.217Z,101533.50
2022-11-27T23:26:24.051Z,101532.91
2022-11-27T23:28:52.203Z,101540.06
2022-11-27T23:31:29.974Z,101532.91
2022-11-27T23:33:57.970Z,101519.94
2022-11-27T23:36:24.454Z,101480.56
2022-11-27T23:38:50.925Z,101472.22
2022-11-27T23:41:20.004Z,101519.13
2022-11-27T23:43:46.718Z,101438.94
2022-11-27T23:46:15.566Z,101520.75
2022-11-27T23:48:42.781Z,101503.63
2022-11-27T23:51:10.848Z,101490.97
2022-11-27T23:53:37.962Z,101473.25
2022-11-27T23:56:08.258Z,101510.66
2022-11-27T23:58:34.994Z,101508.91
